Station Historical Data
 
Daily Summary for January 19, 2018 Units:  Metric    English   Both
« Previous Day
Next Day »
Daily Weekly Monthly Yearly Custom
  Current: High: Low: Average:
Temperature: 3.8 °C 4.2 °C 3.7 °C 4 °C
Dew Point: -2.0 °C -1.4 °C -2.1 °C -1.7 °C
Humidity: 66 % 67 % 66 % 66 %
Wind Speed: 0.0 km/h 7.6 km/h 0.0 km/h 3.6 km/h
Wind Gust: 0.0 km/h 9.3 km/h - -
Wind:Calm - - South
Pressure: 1002.9 hPa 1002.9 hPa 1002.9 hPa -
Precipitation: 0.0 mm      
Historical Graphs
 
 
Tabular Data for January 19, 2018
Time Temperature Dew Point Pressure Wind Wind Speed Wind Gust Humidity Rainfall Rate (Hourly) solar Conditions
00:04 4.0 °C -1.8 °C 1002.9 hPa SSE 3.5 km/h 3.5 km/h 66 % 0.0 mm meteobridge W/m2
00:10 4.0 °C -1.8 °C 1002.9 hPa NNE 1.8 km/h 6.4 km/h 66 % 0.0 mm meteobridge W/m2
00:16 4.1 °C -1.7 °C 1002.9 hPa WSW 4.7 km/h 5.0 km/h 66 % 0.0 mm meteobridge W/m2
00:22 4.1 °C -1.5 °C 1002.9 hPa SW 2.6 km/h 2.6 km/h 67 % 0.0 mm meteobridge W/m2
00:28 4.1 °C -1.5 °C 1002.9 hPa SSW 4.0 km/h 5.0 km/h 67 % 0.0 mm meteobridge W/m2
00:33 4.1 °C -1.5 °C 1002.9 hPa SSE 1.8 km/h 2.1 km/h 67 % 0.0 mm meteobridge W/m2
00:40 4.1 °C -1.5 °C 1002.9 hPa WSW 2.6 km/h 4.7 km/h 67 % 0.0 mm meteobridge W/m2
00:46 4.1 °C -1.5 °C 1002.9 hPa WNW 7.6 km/h 7.6 km/h 67 % 0.0 mm meteobridge W/m2
00:52 4.2 °C -1.4 °C 1002.9 hPa WSW 1.8 km/h 1.8 km/h 67 % 0.0 mm meteobridge W/m2
00:58 4.1 °C -1.5 °C 1002.9 hPa WSW 2.1 km/h 7.9 km/h 67 % 0.0 mm meteobridge W/m2
01:04 4.1 °C -1.7 °C 1002.9 hPa NNE 4.0 km/h 7.6 km/h 66 % 0.0 mm meteobridge W/m2
01:11 4.1 °C -1.7 °C 1002.9 hPa East 1.8 km/h 9.0 km/h 66 % 0.0 mm meteobridge W/m2
01:18 4.1 °C -1.7 °C 1002.9 hPa SSE 2.1 km/h 5.5 km/h 66 % 0.0 mm meteobridge W/m2
01:24 4.0 °C -1.8 °C 1002.9 hPa SE 4.0 km/h 9.3 km/h 66 % 0.0 mm meteobridge W/m2
01:30 4.0 °C -1.8 °C 1002.9 hPa SE 5.8 km/h 6.9 km/h 66 % 0.0 mm meteobridge W/m2
01:36 4.0 °C -1.8 °C 1002.9 hPa SSW 4.0 km/h 4.0 km/h 66 % 0.0 mm meteobridge W/m2
01:42 4.0 °C -1.8 °C 1002.9 hPa ESE 6.9 km/h 6.9 km/h 66 % 0.0 mm meteobridge W/m2
01:48 3.8 °C -2.0 °C 1002.9 hPa ESE 6.4 km/h 6.4 km/h 66 % 0.0 mm meteobridge W/m2
01:54 3.7 °C -2.1 °C 1002.9 hPa East 5.8 km/h 5.8 km/h 66 % 0.0 mm meteobridge W/m2
02:00 3.7 °C -2.1 °C 1002.9 hPa SSW 1.4 km/h 2.6 km/h 66 % 0.0 mm meteobridge W/m2
02:06 3.7 °C -2.1 °C 1002.9 hPa WSW 3.5 km/h 3.5 km/h 66 % 0.0 mm meteobridge W/m2
02:11 3.8 °C -2.0 °C 1002.9 hPa Calm     66 % 0.0 mm meteobridge W/m2
Juneau County Weather
Compliments of Weather Underground - 1.25 mb